Decoded Metar for PAHP (HOOPER BAY in AK, USA) (IATA:HPB) | Meteo·Mobile Aviation Weather
aviador You're here:

PAHP Decoded Metar

HOOPER BAY in AK, USA
Report Time2018-09-19 13:56:00
UTC Time2018-09-19 14:31:57
Flight Rules vfr VFR
Wind250° at 15 kt
W.Decomp.*RWY 31: 4.4 kt HW 14.3 kt LCW
W.Rank250° ranks 30
Current wind is above 250° avg. (10.8)
Visibility9999 m
Phenomena:N/A
Clouds:Few 015 Hf
Overcast 048 Hf
Expected CloudBase > 1,200 ft AGL from Temp-Dew spread
Ceiling4,800 ft
Temp11°C (ISA -4)
Dew Point08°C (82% RH)
AAT5.1°C
QNH1024 hPa
Density Alt-686 ft
Elevation16 ft
Report Wrong Elevation
Raw Report
PAHP 191356Z AUTO 25015KT 10SM FEW015 OVC048 11/08 A3024 RMK AO2
SLP278 T01060078=

Extra information for PAHP:More info

Metar Taf Metar & Taf Last 4 Metars F.Rules Stats Wind Profile Meteogram Temp Stats Airport Information Weather charts Add Link Nearby VenuesMetar ALERT Operation Metar Decoded Social comments

AIRNAV info for PAHP